createdAt,value
2022-10-06T00:02:48.606Z,94926.22
2022-10-06T00:07:51.124Z,94917.56
2022-10-06T00:12:53.109Z,94915.28
2022-10-06T00:17:56.280Z,94932.63
2022-10-06T00:22:58.460Z,94934.63
2022-10-06T00:28:00.621Z,94936.53
2022-10-06T00:33:03.290Z,94931.31
2022-10-06T00:38:05.536Z,94933.94
2022-10-06T00:43:27.482Z,94947.03
2022-10-06T00:48:31.436Z,94917.13
2022-10-06T00:53:33.718Z,94920.41
2022-10-06T00:58:35.837Z,94956.25
2022-10-06T01:03:41.538Z,94961.06
2022-10-06T01:08:43.815Z,94927.34
2022-10-06T01:13:46.590Z,94956.06
2022-10-06T01:18:49.468Z,94953.63
2022-10-06T01:23:51.838Z,94933.88
2022-10-06T01:28:54.073Z,94958.41
2022-10-06T01:33:56.577Z,94942.16
2022-10-06T01:38:58.946Z,94952.16
2022-10-06T01:44:01.071Z,94949.69
2022-10-06T01:49:03.660Z,94945.47
2022-10-06T01:54:05.707Z,94953.00
2022-10-06T01:59:08.262Z,94954.41
2022-10-06T02:04:11.874Z,94958.69
2022-10-06T02:09:13.910Z,94955.81
2022-10-06T02:14:18.421Z,94959.84
2022-10-06T02:19:20.590Z,94922.22
2022-10-06T02:24:22.439Z,94950.03
2022-10-06T02:29:24.410Z,94951.16
2022-10-06T02:34:27.874Z,94966.50
2022-10-06T02:39:31.415Z,94965.44
2022-10-06T02:44:33.738Z,94965.44
2022-10-06T02:49:37.040Z,94972.50
2022-10-06T02:54:39.207Z,94930.59
2022-10-06T02:59:41.208Z,94961.19
2022-10-06T03:04:43.665Z,94962.66
2022-10-06T03:09:47.287Z,94967.63
2022-10-06T03:14:49.415Z,94951.78
2022-10-06T03:19:51.745Z,94953.25
2022-10-06T03:24:54.458Z,94924.59
2022-10-06T03:29:57.005Z,94956.03
2022-10-06T03:35:00.619Z,94964.56
2022-10-06T03:40:03.980Z,94968.41
2022-10-06T03:45:06.464Z,94960.31
2022-10-06T03:50:09.550Z,94972.56
2022-10-06T03:55:11.874Z,94961.25
2022-10-06T04:00:15.666Z,94957.22
2022-10-06T04:05:18.420Z,94982.81
2022-10-06T04:10:20.404Z,94977.75
2022-10-06T04:15:22.440Z,94969.47
2022-10-06T04:20:24.902Z,94993.97
2022-10-06T04:25:27.056Z,94948.97
2022-10-06T04:30:30.311Z,94993.28
2022-10-06T04:35:32.496Z,95004.50
2022-10-06T04:40:34.701Z,95009.56
2022-10-06T04:45:36.762Z,95002.06
2022-10-06T04:50:38.975Z,95005.03
2022-10-06T04:55:45.039Z,94964.69
2022-10-06T05:00:49.364Z,95010.72
2022-10-06T05:05:51.965Z,94981.94
2022-10-06T05:11:00.513Z,95023.19
2022-10-06T05:16:03.936Z,94999.13
2022-10-06T05:21:11.714Z,95021.34
2022-10-06T05:26:21.862Z,95015.72
2022-10-06T05:31:31.783Z,95001.47
2022-10-06T05:36:36.187Z,95041.19
2022-10-06T05:41:39.332Z,95043.97
2022-10-06T05:46:44.027Z,95032.97
2022-10-06T05:51:46.358Z,95046.97
2022-10-06T05:56:56.335Z,95017.97
2022-10-06T06:01:58.528Z,95022.00
2022-10-06T06:07:14.216Z,95040.75
2022-10-06T06:12:20.512Z,95040.28
2022-10-06T06:17:32.424Z,95054.19
2022-10-06T06:22:36.126Z,95044.56
2022-10-06T06:27:40.718Z,95030.50
2022-10-06T06:32:43.010Z,95023.47
2022-10-06T06:37:46.832Z,95051.03
2022-10-06T06:42:53.677Z,95051.41
2022-10-06T06:48:37.968Z,95066.56
2022-10-06T06:53:41.025Z,95069.69
2022-10-06T06:58:47.628Z,95073.16
2022-10-06T07:03:58.765Z,95071.91
2022-10-06T07:09:05.181Z,95078.66
2022-10-06T07:14:10.400Z,95086.94
2022-10-06T07:19:33.011Z,95094.59
2022-10-06T07:24:53.763Z,95099.75
2022-10-06T07:29:56.983Z,95083.16
2022-10-06T07:35:00.928Z,95075.50
2022-10-06T07:40:05.964Z,95098.84
2022-10-06T07:45:27.475Z,95081.34
2022-10-06T07:50:30.063Z,95091.44
2022-10-06T07:55:32.352Z,95099.00
2022-10-06T08:00:44.263Z,95106.19
2022-10-06T08:05:50.880Z,95110.44
2022-10-06T08:11:00.194Z,95100.97
2022-10-06T08:16:07.588Z,95129.00
2022-10-06T08:21:14.882Z,95093.03
2022-10-06T08:26:18.910Z,95096.31
2022-10-06T08:31:22.567Z,95120.84
2022-10-06T08:36:30.894Z,95128.59
2022-10-06T08:41:40.407Z,95123.63
2022-10-06T08:46:50.888Z,95133.13
2022-10-06T08:52:14.385Z,95102.88
2022-10-06T08:57:41.048Z,95132.28
2022-10-06T09:02:45.773Z,95126.09
2022-10-06T09:08:06.309Z,95134.06
2022-10-06T09:13:21.702Z,95130.22
2022-10-06T09:19:03.383Z,95120.56
2022-10-06T09:24:04.746Z,95120.91
2022-10-06T09:29:06.653Z,95115.91
2022-10-06T09:34:22.099Z,95096.09
2022-10-06T09:39:29.204Z,95117.03
2022-10-06T09:44:39.302Z,95114.00
2022-10-06T09:49:44.325Z,95110.13
2022-10-06T09:54:46.266Z,95107.00
2022-10-06T09:59:48.794Z,95086.75
2022-10-06T10:04:54.569Z,95097.69
2022-10-06T10:10:21.398Z,95101.16
2022-10-06T10:15:30.896Z,95096.06
2022-10-06T10:20:55.840Z,95094.09
2022-10-06T10:26:17.690Z,95088.47
2022-10-06T10:31:43.784Z,95090.78
2022-10-06T10:36:54.686Z,95082.50
2022-10-06T10:41:57.310Z,95085.78
2022-10-06T10:47:22.463Z,95077.72
2022-10-06T10:52:29.154Z,95079.28
2022-10-06T10:57:37.415Z,95048.63
2022-10-06T11:02:40.712Z,95070.66
2022-10-06T11:08:01.061Z,95042.75
2022-10-06T11:13:42.148Z,95056.22
2022-10-06T11:18:54.403Z,95041.09
2022-10-06T11:24:19.258Z,95042.31
2022-10-06T11:29:21.137Z,95036.88
2022-10-06T11:34:23.057Z,95028.31
2022-10-06T11:39:31.238Z,95029.88
2022-10-06T11:44:39.686Z,95021.31
2022-10-06T11:49:52.273Z,94983.47
2022-10-06T11:54:55.699Z,95002.97
2022-10-06T12:00:17.687Z,94992.84
2022-10-06T12:10:50.143Z,94972.22
2022-10-06T12:21:30.023Z,94959.75
2022-10-06T12:26:50.246Z,94961.31
2022-10-06T12:32:16.336Z,94941.81
2022-10-06T12:37:42.161Z,94943.78
2022-10-06T12:42:44.107Z,94937.16
2022-10-06T12:47:46.836Z,94940.28
2022-10-06T12:52:53.947Z,94931.69
2022-10-06T12:57:55.954Z,94928.19
2022-10-06T13:02:58.619Z,94913.38
2022-10-06T13:08:02.962Z,94906.78
2022-10-06T13:13:24.387Z,94905.19
2022-10-06T13:18:27.904Z,94862.78
2022-10-06T13:23:30.811Z,94888.47
2022-10-06T13:28:46.344Z,94889.59
2022-10-06T13:33:55.173Z,94879.88
2022-10-06T13:38:57.216Z,94874.81
2022-10-06T13:44:20.030Z,94871.72
2022-10-06T13:49:35.268Z,94811.78
2022-10-06T13:54:54.603Z,94846.34
2022-10-06T14:00:17.484Z,94842.09
2022-10-06T14:05:23.674Z,94838.97
2022-10-06T14:10:33.323Z,94832.72
2022-10-06T14:15:45.696Z,94802.34
2022-10-06T14:20:50.041Z,94800.78
2022-10-06T14:25:55.247Z,94820.28
2022-10-06T14:30:57.965Z,94817.16
2022-10-06T14:36:07.054Z,94815.59
2022-10-06T14:41:09.286Z,94805.47
2022-10-06T14:46:13.007Z,94779.41
2022-10-06T14:51:17.016Z,94781.31
2022-10-06T14:56:19.020Z,94799.97
2022-10-06T15:01:23.685Z,94790.25
2022-10-06T15:06:44.053Z,94779.31
2022-10-06T15:11:46.115Z,94789.03
2022-10-06T15:16:48.235Z,94784.34
2022-10-06T15:21:51.281Z,94780.44
2022-10-06T15:27:12.060Z,94781.59
2022-10-06T15:32:15.840Z,94771.09
2022-10-06T15:37:19.338Z,94769.19
2022-10-06T15:42:24.306Z,94771.50
2022-10-06T15:47:26.991Z,94754.41
2022-10-06T15:52:29.537Z,94757.53
2022-10-06T15:57:31.672Z,94749.38
2022-10-06T16:02:35.823Z,94752.44
2022-10-06T16:07:37.975Z,94754.03
2022-10-06T16:12:40.199Z,94751.69
2022-10-06T16:17:42.091Z,94732.28
2022-10-06T16:22:44.067Z,94752.09
2022-10-06T16:27:45.958Z,94732.69
2022-10-06T16:32:48.529Z,94740.50
2022-10-06T16:37:50.349Z,94731.19
2022-10-06T16:42:52.446Z,94744.81
2022-10-06T16:47:54.513Z,94745.56
2022-10-06T16:52:56.521Z,94746.34
2022-10-06T16:57:59.332Z,94742.88
2022-10-06T17:03:01.346Z,94707.16
2022-10-06T17:08:03.313Z,94750.72
2022-10-06T17:13:05.518Z,94729.38
2022-10-06T17:18:07.606Z,94740.66
2022-10-06T17:23:10.417Z,94752.69
2022-10-06T17:28:12.615Z,94753.09
2022-10-06T17:33:14.554Z,94751.13
2022-10-06T17:38:16.471Z,94747.97
2022-10-06T17:43:19.448Z,94768.53
2022-10-06T17:48:27.120Z,94770.78
2022-10-06T17:53:29.314Z,94764.88
2022-10-06T17:58:31.240Z,94774.91
2022-10-06T18:03:37.947Z,94741.41
2022-10-06T18:08:40.358Z,94776.38
2022-10-06T18:13:42.756Z,94769.72
2022-10-06T18:18:46.341Z,94783.25
2022-10-06T18:23:48.948Z,94770.63
2022-10-06T18:28:50.946Z,94785.75
2022-10-06T18:39:17.955Z,94789.22
2022-10-06T18:44:39.859Z,94782.13
2022-10-06T18:49:43.010Z,94789.44
2022-10-06T18:54:45.207Z,94783.56
2022-10-06T18:59:47.360Z,94791.69
2022-10-06T19:04:49.463Z,94803.38
2022-10-06T19:09:51.768Z,94798.63
2022-10-06T19:14:53.796Z,94802.06
2022-10-06T19:19:57.150Z,94789.97
2022-10-06T19:24:59.491Z,94806.22
2022-10-06T19:30:02.312Z,94811.91
2022-10-06T19:35:10.078Z,94813.28
2022-10-06T19:40:12.776Z,94815.56
2022-10-06T19:45:16.209Z,94802.59
2022-10-06T19:50:17.976Z,94813.81
2022-10-06T19:55:22.981Z,94797.66
2022-10-06T20:00:25.085Z,94818.75
2022-10-06T20:05:27.032Z,94812.78
2022-10-06T20:10:42.740Z,94815.88
2022-10-06T20:15:58.114Z,94796.16
2022-10-06T20:21:00.429Z,94780.25
2022-10-06T20:26:14.686Z,94833.34
2022-10-06T20:31:22.785Z,94850.28
2022-10-06T20:36:29.400Z,94864.13
2022-10-06T20:41:32.280Z,94869.38
2022-10-06T20:46:37.146Z,94866.13
2022-10-06T20:51:41.669Z,94835.28
2022-10-06T20:56:43.730Z,94851.13
2022-10-06T21:01:46.140Z,94889.91
2022-10-06T21:06:48.821Z,94895.91
2022-10-06T21:11:50.919Z,94902.56
2022-10-06T21:16:53.941Z,94892.41
2022-10-06T21:21:56.008Z,94909.34
2022-10-06T21:26:58.606Z,94935.22
2022-10-06T21:32:00.646Z,94942.00
2022-10-06T21:37:02.738Z,94940.59
2022-10-06T21:42:04.823Z,94932.34
2022-10-06T21:47:06.956Z,94944.19
2022-10-06T21:52:09.733Z,94951.72
2022-10-06T21:57:15.512Z,94945.84
2022-10-06T22:02:17.491Z,94942.09
2022-10-06T22:07:19.349Z,94946.03
2022-10-06T22:12:21.285Z,94951.44
2022-10-06T22:17:23.801Z,94936.13
2022-10-06T22:22:25.710Z,94939.47
2022-10-06T22:27:27.607Z,94958.59
2022-10-06T22:32:29.786Z,94960.38
2022-10-06T22:37:32.075Z,94924.22
2022-10-06T22:42:34.137Z,94971.03
2022-10-06T22:47:36.195Z,94959.72
2022-10-06T22:52:38.271Z,94963.31
2022-10-06T22:57:40.581Z,94972.00
2022-10-06T23:02:42.853Z,94965.75
2022-10-06T23:07:45.259Z,94979.53
2022-10-06T23:12:48.254Z,94984.06
2022-10-06T23:17:50.663Z,94981.41
2022-10-06T23:22:55.308Z,94986.03
2022-10-06T23:27:57.243Z,94989.22
2022-10-06T23:32:59.283Z,94943.00
2022-10-06T23:38:01.405Z,94987.81
2022-10-06T23:43:03.411Z,94946.41
2022-10-06T23:48:14.520Z,94957.38
2022-10-06T23:53:16.369Z,94970.16
2022-10-06T23:58:20.330Z,94972.34
